プンタアレナス の空港の天気 - METARとTAF

プンタアレナス空港 ( SCCI / PUQ ) - チリ プンタアレナス
飛行場実況気象(Metar)
観測時間10/16 03:00 CLST (10/16 06:00 UTC)
風向・風速西 2m/s
視程10km以上
天気現象
なし
気温2℃
湿度81%
気圧986hPa
METARSCCI 160600Z 28003KT CAVOK 02/M01 Q0986 NOSIG
過去の天気等 Google飛行場航空写真 Wunderground天気予報

過去48時間のMETAR

飛行場予報(TAF)
発表時間: 10/16 01:47 CLST (10/16 04:47 UTC)
予報対象時間: 16日3時 CLST ~ 17日3時 CLST
風向・風速西北西 5m/s
視程10km以上
なし
16日7時 CLST ~ 16日11時 CLST に一時的に
風向・風速不定 2m/s
16日12時 CLST ~ 16日14時 CLST に徐々に
風向・風速南 8m/s
視程10km以上
少しの雲 雲底高度 1220m
16日14時 CLST ~ 16日21時 CLST に 確率 30% で一時的に
視程9000m
天気現象弱いしゅう雨
全天の4割程度の雲 雲底高度 850m
TAF SCCI 160447Z 1606/1706 29010KT CAVOK TN00/1610Z TX09/1619Z
TEMPO 1610/1614 VRB04KT
BECMG 1615/1617 18015KT 9999 FEW040
PROB30 TEMPO 1617/1700 9000 -SHRA SCT028